Santo Domingo, Dominican Republic
Current Conditions -  °F | °C
As of 1:00 AM on Sunday 23 Nov 2014 (Local Time) from MDSD Reporting Station
Thunderstorm Thunderstorm  
Wind Chill: 73°   Ceiling: Unl
Heat Index: 73°   Visibility: 6mi
Dew Point: 70°   Wind: 0mph
Humidity: 88%   Direction: NA
Pressure: 30"   Gusts: NA
Location:  18.48°N, 69.91°W
Report Text: MDSD 230500Z 00000KT TS FEW014CB SCT016 23/21 Q1016 CB/SW/W
Loading
Personal Weather Stations






























Interactive Weather Map New forecast layout! Learn more

10-Day Weather Forecast

Advertisements
Track Severe Weather on mobile